Limekiln, Pennsylvania
Current Conditions -  °F | °C
As of 1:54 AM on Tuesday 21 Oct 2014 (Local Time) from KRDG Reporting Station
Light Rain Light Rain  
Wind Chill: 55°   Ceiling: 6500
Heat Index: 55°   Visibility: 10mi
Dew Point: 48°   Wind: 3mph
Humidity: 77%   Direction: 270°W
Pressure: 29.91"   Gusts: NA
Location:  40.34°N, 75.77°W
Report Text: KRDG 210554Z AUTO 27003KT 10SM -RA BKN065 OVC095 13/09 A2991 RMK AO2 RAE0455B16 SLP132 P0001 60001 T01280089 10139 20128 56013
Loading
Personal Weather Stations






























Interactive Weather Map
Tropical Storm Tracking
New forecast layout! Learn more

10-Day Weather Forecast

Advertisements
Track Severe Weather on mobile